Glen, MS (38846)

12:26 AM CST del 05 Marzo 2015 (GMT -0600)
Downtown Corinth | Change Station
CLOSE
Current Station
Stazione meteo personale
Location: Corinth, MS
Altitudine: 471 ft
Stazioni meteo nelle vicinanze
Avvisi attivi: Winter Storm Warning

Alt. 471 ft 34.93 °N, 88.51 °W | Updated 4 minutes ago

Coperto
Coperto
30.5 °F
Sembra 23 °F
N
8.0
Vento Variabile Vento da Nord
Gusts 16.0 mph

Oggi
Massima -- | Minima -- °F
--% Possibilità di precip.
Ieri
Massima -- | Minima -- °F
Precip. -- in
6:18 AM 5:52 PM
Luna piena, 100% visible
Pressione 30.11 in
Visibilità 5.0 miglia
Nuvole Coperto 1200 ft
Raffreddamento del vento 23 °F
Punto di rugiada 29 °F
Umidità 93%
Piovosità in
Spessore del manto nevoso Non disponibile.
Raggi UV 0.0 fuori da 12
Polline .90 fuori da 12
Qualità dell'aria Non disponibile.
Flu Activity Non disponibile.
METAR KCRX 050615Z AUTO 01016G25KT 5SM -RA OVC012 M00/M02 A3011 RMK AO2

More Conditions Fewer Conditions

Pressione 30.11 in
Visibilità 5.0 miglia
Nuvole Coperto 1200 ft
Raffreddamento del vento 23 °F
Punto di rugiada 29 °F
Umidità 93%
Piovosità in
Spessore del manto nevoso Non disponibile.
Raggi UV 0.0 fuori da 12
Polline .90 fuori da 12
Qualità dell'aria Non disponibile.
Flu Activity Non disponibile.
METAR KCRX 050615Z AUTO 01016G25KT 5SM -RA OVC012 M00/M02 A3011 RMK AO2

More Conditions Fewer Conditions

10-Day Weather Forecast

Almanac

Astronomia

Mar. 05, 2015 Alba Tramonto
Ora attuale
Crepuscolo civile
Crepuscolo nautico
Crepuscolo astronomico
Luna
Estensione della luce visibile
Lunghezza del giorno
Tomorrow will be .
, % of the Moon is Illuminated

Gli estremi di oggi

State Highs State Lows

Community

WunderPhotos

Upload Photos

1,802,689 foto caricate!

WunderBlogs® & News

Nearby

Qualità dell'aria

  Qualità dell'aria Indice AQ Inquinante
Not available.

Profondità neve

Stazione Profondità Altitudine

Attività sismica

Città  Distanza Mag. Data & Ora
Minimo Magnitudo Mostrato è 2.5.

Temperature delle acque costiere

Località Temperatura

Stazioni meteo nelle vicinanze

Winter Storm Warning
Statement as of 11:08 PM CST del 04 Marzo 2015

... Winter Storm Warning remains in effect until noon CST
Thursday...

* snow/sleet/ice accumulations... snow accumulations between 2 and
4 inches... in addition to 1 to 2 inches of sleet. Less than one
tenth of an inch of ice.

* Timing... through 12 PM CST Thursday afternoon.

* Impacts... travel will remain hazardous.

Precautionary/preparedness actions...

A Winter Storm Warning means significant amounts of snow...
sleet... and ice are expected or occurring. Strong winds are also
possible. This will make travel very hazardous or impossible.